Time;durP1;ratioP1;P1;durP2;ratioP2;P2;SDS_P1;SDS_P2;PMS_P1;PMS_P2;Temp;Humidity;BMP_temperature;BMP_pressure;BME280_temperature;BME280_humidity;BME280_pressure;Samples;Min_cycle;Max_cycle;Signal;HPM_P1;HPM_P2
2022/08/08 00:00:02;;;;;;;;;;;;;;;23.95;38.96;102278.75;7290548;19;151950;-62
2022/08/08 00:02:49;;;;;;;;;;;;;;;23.94;39.32;102277.06;7280390;19;154572;-62
2022/08/08 00:05:35;;;;;;;;;;;;;;;23.95;38.75;102284.38;7279925;19;151852;-63
2022/08/08 00:08:32;;;;;;;;;;;;;;;23.93;39.11;102279.06;7281352;19;155108;-63
2022/08/08 00:11:05;;;;;;;;;;;;;;;23.96;39.31;102279.59;7282259;19;154081;-63
2022/08/08 00:13:45;;;;;;;;;;;;;;;23.94;39.34;102280.72;7281766;19;153372;-63
2022/08/08 00:16:44;;;;;;;;;;;;;;;23.94;38.96;102283.53;7282103;19;155365;-62
2022/08/08 00:19:14;;;;;;;;;;;;;;;23.96;39.63;102283.25;7279188;19;152888;-63
2022/08/08 00:21:55;;;;;;;;;;;;;;;23.95;39.68;102295.69;7280511;19;151953;-62
2022/08/08 00:24:35;;;;;;;;;;;;;;;23.94;39.92;102296.81;7289077;19;152771;-63
2022/08/08 00:27:08;;;;;;;;;;;;;;;23.93;39.94;102303.63;7282991;19;152044;-62
2022/08/08 00:29:47;;;;;;;;;;;;;;;23.92;39.93;102296.28;7279942;19;154198;-63
2022/08/08 00:32:21;;;;;;;;;;;;;;;23.97;39.76;102293.41;7279249;19;153826;-62
2022/08/08 00:35:10;;;;;;;;;;;;;;;23.93;39.40;102296.00;7280425;19;153104;-62
2022/08/08 00:38:06;;;;;;;;;;;;;;;23.93;39.77;102292.34;7281081;19;152722;-62
2022/08/08 00:41:23;;;;;;;;;;;;;;;23.90;39.74;102290.94;7279129;19;155563;-63
2022/08/08 00:44:31;;;;;;;;;;;;;;;23.90;39.94;102292.91;7281121;19;152461;-62
2022/08/08 00:46:59;;;;;;;;;;;;;;;23.91;40.27;102305.91;7281798;19;152399;-62
2022/08/08 00:49:49;;;;;;;;;;;;;;;23.90;39.86;102290.94;7283124;19;153900;-63
2022/08/08 00:52:25;;;;;;;;;;;;;;;23.89;40.17;102285.59;7281856;19;152714;-63
2022/08/08 00:55:05;;;;;;;;;;;;;;;23.89;39.95;102286.41;7281442;19;154310;-62
2022/08/08 00:57:40;;;;;;;;;;;;;;;23.90;40.13;102295.72;7281713;19;152186;-63
2022/08/08 01:00:10;;;;;;;;;;;;;;;23.88;39.96;102304.53;7281942;19;154719;-63
2022/08/08 01:02:36;;;;;;;;;;;;;;;23.90;39.94;102301.38;7279679;19;157801;-62
2022/08/08 01:05:29;;;;;;;;;;;;;;;23.87;40.20;102293.53;7278056;19;152776;-63
2022/08/08 01:08:35;;;;;;;;;;;;;;;23.90;39.74;102295.72;7280267;19;155362;-63
2022/08/08 01:11:25;;;;;;;;;;;;;;;23.92;40.09;102299.13;7288184;19;154475;-62
2022/08/08 01:14:12;;;;;;;;;;;;;;;23.90;40.11;102299.41;7281098;19;156032;-63
2022/08/08 01:17:02;;;;;;;;;;;;;;;23.92;40.23;102297.13;7278354;19;153817;-63
2022/08/08 01:19:30;;;;;;;;;;;;;;;23.91;40.02;102294.59;7277969;19;153246;-63
2022/08/08 01:22:28;;;;;;;;;;;;;;;23.89;40.14;102291.25;7280855;19;156076;-62
2022/08/08 01:25:03;;;;;;;;;;;;;;;23.89;40.16;102294.06;7273306;19;153334;-62
2022/08/08 01:27:52;;;;;;;;;;;;;;;23.86;39.93;102295.50;7280665;19;151932;-62
2022/08/08 01:30:28;;;;;;;;;;;;;;;23.86;40.10;102286.19;7280147;19;152988;-62
2022/08/08 01:32:59;;;;;;;;;;;;;;;23.87;40.24;102288.72;7278752;19;153242;-62
2022/08/08 01:35:43;;;;;;;;;;;;;;;23.86;40.22;102289.84;7290860;19;152851;-63
2022/08/08 01:38:25;;;;;;;;;;;;;;;23.87;40.08;102299.16;7286543;19;154017;-64
2022/08/08 01:40:55;;;;;;;;;;;;;;;23.88;40.42;102300.84;7287141;19;151937;-63
2022/08/08 01:43:41;;;;;;;;;;;;;;;23.85;40.34;102307.06;7286565;19;152611;-62
2022/08/08 01:46:29;;;;;;;;;;;;;;;23.87;40.45;102302.00;7283119;19;154013;-63
2022/08/08 01:49:14;;;;;;;;;;;;;;;23.90;40.23;102296.59;7282488;19;152461;-63
2022/08/08 01:52:10;;;;;;;;;;;;;;;23.87;40.47;102304.81;7287005;19;156157;-63
2022/08/08 01:55:06;;;;;;;;;;;;;;;23.88;40.67;102290.41;7286054;19;156414;-63
2022/08/08 01:58:15;;;;;;;;;;;;;;;23.86;40.51;102287.03;7287651;19;151610;-63
2022/08/08 02:00:51;;;;;;;;;;;;;;;23.84;40.58;102277.19;7293083;19;152857;-62
2022/08/08 02:03:42;;;;;;;;;;;;;;;23.84;40.73;102277.19;7283782;19;151964;-62
2022/08/08 02:06:29;;;;;;;;;;;;;;;23.84;40.56;102271.53;7286212;19;152562;-63
2022/08/08 02:08:59;;;;;;;;;;;;;;;23.83;40.84;102286.78;7283151;19;152308;-61
2022/08/08 02:11:57;;;;;;;;;;;;;;;23.82;40.66;102287.94;7286259;19;151976;-62
2022/08/08 02:14:41;;;;;;;;;;;;;;;23.86;40.13;102297.47;7283695;19;154765;-62
2022/08/08 02:17:25;;;;;;;;;;;;;;;23.82;41.05;102304.88;7285280;19;153237;-62
2022/08/08 02:20:35;;;;;;;;;;;;;;;23.82;40.95;102293.56;7284069;19;152506;-62
2022/08/08 02:23:32;;;;;;;;;;;;;;;23.83;40.62;102298.94;7284641;19;154456;-61
2022/08/08 02:26:11;;;;;;;;;;;;;;;23.82;40.57;102302.03;7292284;19;152942;-62
2022/08/08 02:28:51;;;;;;;;;;;;;;;23.84;40.90;102297.78;7282536;19;155120;-62
2022/08/08 02:31:36;;;;;;;;;;;;;;;23.82;40.83;102297.25;7285289;19;156786;-62
2022/08/08 02:34:41;;;;;;;;;;;;;;;23.85;40.26;102292.97;7282961;19;152660;-61
2022/08/08 02:37:37;;;;;;;;;;;;;;;23.80;40.70;102293.03;7285741;19;155048;-61
2022/08/08 02:40:34;;;;;;;;;;;;;;;23.82;40.50;102285.94;7284643;19;153404;-61
2022/08/08 02:43:11;;;;;;;;;;;;;;;23.82;40.60;102285.09;7285849;19;153104;-61
2022/08/08 02:46:20;;;;;;;;;;;;;;;23.80;41.01;102287.41;7283701;19;155599;-61
2022/08/08 02:49:04;;;;;;;;;;;;;;;23.78;40.83;102289.66;7280464;19;154091;-63
2022/08/08 02:51:50;;;;;;;;;;;;;;;23.79;40.77;102292.19;7292829;19;152255;-61
2022/08/08 02:54:43;;;;;;;;;;;;;;;23.77;40.85;102294.47;7283228;19;153520;-62
2022/08/08 02:57:38;;;;;;;;;;;;;;;23.78;40.90;102298.97;7286009;19;152816;-62
2022/08/08 03:00:21;;;;;;;;;;;;;;;23.79;40.76;102299.81;7284209;19;152549;-62
2022/08/08 03:03:26;;;;;;;;;;;;;;;23.79;40.67;102300.66;7282097;19;154634;-62
2022/08/08 03:06:36;;;;;;;;;;;;;;;23.79;40.54;102286.56;7284068;19;155459;-63
2022/08/08 03:09:19;;;;;;;;;;;;;;;23.78;40.80;102293.34;7283572;19;154639;-63
2022/08/08 03:12:01;;;;;;;;;;;;;;;23.76;40.79;102295.59;7282476;19;154497;-62
2022/08/08 03:14:50;;;;;;;;;;;;;;;23.75;41.13;102305.22;7285790;19;152293;-62
2022/08/08 03:17:45;;;;;;;;;;;;;;;23.77;41.10;102297.28;7291776;19;154733;-63
2022/08/08 03:20:41;;;;;;;;;;;;;;;23.79;40.72;102305.47;7280838;19;152254;-62
2022/08/08 03:23:16;;;;;;;;;;;;;;;23.74;40.94;102308.34;7285234;19;153131;-62
2022/08/08 03:25:44;;;;;;;;;;;;;;;23.75;41.13;102299.59;7284011;19;154762;-62
2022/08/08 03:28:11;;;;;;;;;;;;;;;23.81;40.78;102306.84;7284615;19;151973;-62
2022/08/08 03:30:44;;;;;;;;;;;;;;;23.77;40.74;102310.56;7280168;19;153527;-62
2022/08/08 03:33:18;;;;;;;;;;;;;;;23.77;40.98;102319.03;7283300;19;153649;-63
2022/08/08 03:36:05;;;;;;;;;;;;;;;23.77;41.24;102321.84;7282683;19;152422;-63
2022/08/08 03:38:36;;;;;;;;;;;;;;;23.75;41.30;102315.69;7289815;19;153907;-63
2022/08/08 03:41:32;;;;;;;;;;;;;;;23.79;40.98;102323.25;7282954;19;154028;-62
2022/08/08 03:44:19;;;;;;;;;;;;;;;23.75;41.32;102319.34;7282322;19;155114;-62
2022/08/08 03:46:51;;;;;;;;;;;;;;;23.79;41.37;102325.22;7282745;19;153466;-63
2022/08/08 03:49:21;;;;;;;;;;;;;;;23.76;41.38;102317.34;7277367;19;153609;-64
2022/08/08 03:52:08;;;;;;;;;;;;;;;23.74;41.60;102313.97;7283868;19;155573;-63
2022/08/08 03:54:44;;;;;;;;;;;;;;;23.71;41.61;102318.22;7281915;19;153174;-62
2022/08/08 03:57:32;;;;;;;;;;;;;;;23.74;41.67;102317.66;7281916;19;152000;-62
2022/08/08 04:00:21;;;;;;;;;;;;;;;23.72;42.01;102324.72;7283460;19;156172;-63
2022/08/08 04:02:59;;;;;;;;;;;;;;;23.72;42.02;102319.06;7288297;19;154877;-63
2022/08/08 04:05:28;;;;;;;;;;;;;;;23.72;41.68;102325.56;7280661;19;153115;-62
2022/08/08 04:07:56;;;;;;;;;;;;;;;23.77;41.72;102330.31;7281655;19;152431;-63
2022/08/08 04:10:24;;;;;;;;;;;;;;;23.73;41.96;102340.50;7280932;19;152281;-62
2022/08/08 04:12:57;;;;;;;;;;;;;;;23.78;42.11;102332.84;7283440;19;153517;-62
2022/08/08 04:15:24;;;;;;;;;;;;;;;23.70;42.49;102341.13;7281778;19;154110;-63
2022/08/08 04:18:04;;;;;;;;;;;;;;;23.70;42.24;102341.97;7284903;19;151898;-63
2022/08/08 04:20:31;;;;;;;;;;;;;;;23.69;42.79;102347.91;7280177;19;154140;-62
2022/08/08 04:22:58;;;;;;;;;;;;;;;23.70;42.19;102349.59;7282573;19;153399;-62
2022/08/08 04:25:29;;;;;;;;;;;;;;;23.70;42.77;102346.75;7290150;19;152026;-62
2022/08/08 04:28:03;;;;;;;;;;;;;;;23.69;42.77;102354.38;7281554;19;153063;-63
2022/08/08 04:30:51;;;;;;;;;;;;;;;23.68;42.60;102344.22;7279965;19;153566;-63
2022/08/08 04:33:20;;;;;;;;;;;;;;;23.68;42.42;102355.50;7283423;19;152900;-62
2022/08/08 04:35:47;;;;;;;;;;;;;;;23.70;42.91;102347.59;7278960;19;153022;-63
2022/08/08 04:38:17;;;;;;;;;;;;;;;23.66;42.92;102346.53;7281541;19;153771;-63
2022/08/08 04:40:48;;;;;;;;;;;;;;;23.64;43.12;102354.44;7280344;19;153715;-63
2022/08/08 04:43:20;;;;;;;;;;;;;;;23.66;43.42;102351.31;7280334;19;153922;-63
2022/08/08 04:45:48;;;;;;;;;;;;;;;23.68;43.29;102346.19;7282812;19;151817;-63
2022/08/08 04:48:15;;;;;;;;;;;;;;;23.71;43.20;102349.28;7284882;19;153602;-62
2022/08/08 04:50:47;;;;;;;;;;;;;;;23.68;42.85;102352.69;7276522;19;152665;-63
2022/08/08 04:53:16;;;;;;;;;;;;;;;23.67;43.43;102356.66;7282433;19;153934;-62
2022/08/08 04:56:03;;;;;;;;;;;;;;;23.68;43.10;102346.19;7281059;19;157456;-63
2022/08/08 04:58:30;;;;;;;;;;;;;;;23.67;43.07;102356.66;7279855;19;152381;-63
2022/08/08 05:00:58;;;;;;;;;;;;;;;23.69;42.96;102359.19;7281940;19;153841;-63
2022/08/08 05:03:31;;;;;;;;;;;;;;;23.71;43.18;102360.56;7277504;19;153345;-64
2022/08/08 05:06:18;;;;;;;;;;;;;;;23.69;43.65;102357.22;7280940;19;153050;-63
2022/08/08 05:08:53;;;;;;;;;;;;;;;23.70;43.29;102367.38;7284493;19;154026;-63
2022/08/08 05:11:21;;;;;;;;;;;;;;;23.69;43.41;102373.28;7292766;19;153911;-63
2022/08/08 05:13:51;;;;;;;;;;;;;;;23.71;43.14;102376.69;7287317;19;153732;-63
2022/08/08 05:16:30;;;;;;;;;;;;;;;23.68;43.48;102380.91;7287675;19;154081;-63
2022/08/08 05:19:17;;;;;;;;;;;;;;;23.70;43.28;102374.97;7284301;19;152414;-63
2022/08/08 05:22:07;;;;;;;;;;;;;;;23.67;43.76;102381.19;7288453;19;157000;-63
2022/08/08 05:24:35;;;;;;;;;;;;;;;23.65;43.70;102387.16;7285904;19;154117;-63
2022/08/08 05:27:03;;;;;;;;;;;;;;;23.67;43.76;102389.66;7288148;19;152641;-63
2022/08/08 05:29:30;;;;;;;;;;;;;;;23.65;43.93;102401.25;7287095;19;152606;-63
2022/08/08 05:32:01;;;;;;;;;;;;;;;23.68;44.13;102403.50;7285338;19;152624;-63
2022/08/08 05:34:34;;;;;;;;;;;;;;;23.65;43.99;102406.06;7292667;19;152038;-62
2022/08/08 05:37:03;;;;;;;;;;;;;;;23.65;44.31;102397.59;7285321;19;152983;-63
2022/08/08 05:39:44;;;;;;;;;;;;;;;23.67;44.40;102400.94;7286086;19;153452;-63
2022/08/08 05:42:13;;;;;;;;;;;;;;;23.64;44.42;102412.84;7286603;19;153668;-62
2022/08/08 05:44:46;;;;;;;;;;;;;;;23.64;44.59;102413.69;7284726;19;153488;-63
2022/08/08 05:47:17;;;;;;;;;;;;;;;23.65;45.02;102408.88;7285958;19;152725;-63
2022/08/08 05:49:47;;;;;;;;;;;;;;;23.67;44.79;102418.72;7283648;19;153635;-63
2022/08/08 05:52:21;;;;;;;;;;;;;;;23.62;44.81;102410.31;7286222;19;154919;-63
2022/08/08 05:54:57;;;;;;;;;;;;;;;23.63;44.81;102412.00;7293299;19;152997;-63
2022/08/08 05:57:35;;;;;;;;;;;;;;;23.61;44.92;102410.63;7285760;19;152743;-63
2022/08/08 06:00:23;;;;;;;;;;;;;;;23.62;44.94;102415.94;7287063;19;151993;-63
2022/08/08 06:03:10;;;;;;;;;;;;;;;23.61;44.99;102419.09;7285639;19;153489;-62
2022/08/08 06:05:53;;;;;;;;;;;;;;;23.62;44.87;102412.31;7281901;19;154036;-63
2022/08/08 06:08:35;;;;;;;;;;;;;;;23.60;45.38;102417.38;7287332;19;152172;-63
2022/08/08 06:11:03;;;;;;;;;;;;;;;23.68;45.05;102420.44;7285936;19;153715;-63
2022/08/08 06:13:31;;;;;;;;;;;;;;;23.64;45.36;102419.31;7285853;19;153969;-63
2022/08/08 06:16:12;;;;;;;;;;;;;;;23.63;44.95;102423.28;7285931;19;152009;-63
2022/08/08 06:18:40;;;;;;;;;;;;;;;23.62;45.35;102415.13;7290878;19;154858;-63
2022/08/08 06:21:08;;;;;;;;;;;;;;;23.63;45.16;102430.91;7284783;19;152354;-64
2022/08/08 06:23:54;;;;;;;;;;;;;;;23.63;44.95;102430.91;7285379;19;152865;-63
2022/08/08 06:26:42;;;;;;;;;;;;;;;23.61;45.52;102422.75;7285618;19;154049;-63
2022/08/08 06:29:28;;;;;;;;;;;;;;;23.64;45.98;102427.78;7286095;19;152378;-63
2022/08/08 06:32:15;;;;;;;;;;;;;;;23.61;45.50;102425.56;7284836;19;155051;-63
2022/08/08 06:34:47;;;;;;;;;;;;;;;23.60;45.41;102432.34;7281262;19;152431;-62
2022/08/08 06:37:35;;;;;;;;;;;;;;;23.63;45.78;102430.91;7285665;19;152117;-63
2022/08/08 06:40:05;;;;;;;;;;;;;;;23.59;45.49;102441.94;7285663;19;153280;-63
2022/08/08 06:42:36;;;;;;;;;;;;;;;23.63;45.90;102436.53;7292689;19;154235;-63
2022/08/08 06:45:04;;;;;;;;;;;;;;;23.63;46.07;102445.00;7285939;19;152549;-63
2022/08/08 06:47:33;;;;;;;;;;;;;;;23.60;46.43;102445.59;7283625;19;153894;-62
2022/08/08 06:50:19;;;;;;;;;;;;;;;23.56;46.18;102445.34;7280696;19;155755;-63
2022/08/08 06:53:01;;;;;;;;;;;;;;;23.61;46.48;102452.94;7285787;19;153297;-64
2022/08/08 06:55:46;;;;;;;;;;;;;;;23.59;46.20;102449.56;7283305;19;154178;-63
2022/08/08 06:58:29;;;;;;;;;;;;;;;23.57;46.09;102446.19;7284939;19;152206;-63
2022/08/08 07:01:00;;;;;;;;;;;;;;;23.58;45.51;102450.69;7286291;19;152829;-63
2022/08/08 07:03:50;;;;;;;;;;;;;;;23.57;46.14;102457.50;7278499;19;155732;-63
2022/08/08 07:06:41;;;;;;;;;;;;;;;23.59;45.87;102456.03;7293181;19;151656;-63
2022/08/08 07:09:13;;;;;;;;;;;;;;;23.64;45.76;102446.69;7283555;19;152185;-63
2022/08/08 07:11:47;;;;;;;;;;;;;;;23.63;46.26;102456.28;7282687;19;152633;-63
2022/08/08 07:14:17;;;;;;;;;;;;;;;23.63;45.83;102457.16;7283706;19;152626;-62
2022/08/08 07:17:00;;;;;;;;;;;;;;;23.63;46.12;102465.59;7282667;19;153979;-63
2022/08/08 07:19:33;;;;;;;;;;;;;;;23.61;46.24;102467.91;7281884;19;152940;-63
2022/08/08 07:22:05;;;;;;;;;;;;;;;23.59;46.48;102460.84;7285607;19;153828;-63
2022/08/08 07:24:52;;;;;;;;;;;;;;;23.60;46.19;102468.19;7281310;19;154228;-63
2022/08/08 07:27:21;;;;;;;;;;;;;;;23.63;46.40;102467.59;7285446;19;151938;-63
2022/08/08 07:30:00;;;;;;;;;;;;;;;23.63;46.06;102478.88;7289877;19;152138;-62
2022/08/08 07:32:40;;;;;;;;;;;;;;;23.61;46.28;102478.34;7281718;19;152362;-63
2022/08/08 07:35:08;;;;;;;;;;;;;;;23.62;46.43;102478.03;7282295;19;152901;-63
2022/08/08 07:37:35;;;;;;;;;;;;;;;23.60;46.36;102477.50;7283406;19;152910;-63
2022/08/08 07:40:23;;;;;;;;;;;;;;;23.57;46.53;102477.25;7284888;19;151984;-63
2022/08/08 07:42:59;;;;;;;;;;;;;;;23.58;46.30;102484.53;7283533;19;152421;-63
2022/08/08 07:45:26;;;;;;;;;;;;;;;23.58;46.49;102482.56;7281613;19;153872;-62
2022/08/08 07:48:13;;;;;;;;;;;;;;;23.59;46.22;102480.59;7284167;19;152272;-63
2022/08/08 07:50:40;;;;;;;;;;;;;;;23.57;46.63;102480.06;7280871;19;152932;-63
2022/08/08 07:53:18;;;;;;;;;;;;;;;23.58;46.53;102487.38;7289755;19;152582;-63
2022/08/08 07:56:08;;;;;;;;;;;;;;;23.59;46.67;102483.41;7284283;19;156606;-63
2022/08/08 07:58:39;;;;;;;;;;;;;;;23.60;46.35;102487.94;7281785;19;154030;-62
2022/08/08 08:01:10;;;;;;;;;;;;;;;23.59;46.66;102487.09;7284755;19;151976;-63
2022/08/08 08:03:57;;;;;;;;;;;;;;;23.60;46.42;102487.94;7279179;19;153504;-62
2022/08/08 08:06:25;;;;;;;;;;;;;;;23.60;46.94;102485.13;7281851;19;154345;-63
2022/08/08 08:09:11;;;;;;;;;;;;;;;23.58;47.07;102485.41;7283491;19;153600;-64
2022/08/08 08:11:44;;;;;;;;;;;;;;;23.59;46.81;102483.41;7281580;19;153032;-63
2022/08/08 08:14:29;;;;;;;;;;;;;;;23.59;46.66;102489.06;7290779;19;153187;-62
2022/08/08 08:16:57;;;;;;;;;;;;;;;23.60;47.05;102487.94;7282897;19;153447;-63
2022/08/08 08:19:30;;;;;;;;;;;;;;;23.58;46.78;102488.22;7280410;19;153398;-63
2022/08/08 08:22:11;;;;;;;;;;;;;;;23.59;46.80;102486.25;7283586;19;153735;-63
2022/08/08 08:24:43;;;;;;;;;;;;;;;23.60;46.29;102483.13;7282164;19;152741;-63
2022/08/08 08:27:12;;;;;;;;;;;;;;;23.61;46.81;102489.63;7280791;19;152408;-63
2022/08/08 08:29:38;;;;;;;;;;;;;;;23.62;46.62;102494.16;7282480;19;152405;-64
2022/08/08 08:32:07;;;;;;;;;;;;;;;23.65;46.63;102487.91;7280690;19;153848;-63
2022/08/08 08:34:36;;;;;;;;;;;;;;;23.62;46.58;102489.31;7280080;19;154108;-62
2022/08/08 08:37:08;;;;;;;;;;;;;;;23.66;47.12;102490.44;7291151;19;152144;-62
2022/08/08 08:39:36;;;;;;;;;;;;;;;23.63;46.76;102491.00;7279893;19;154278;-63
2022/08/08 08:42:24;;;;;;;;;;;;;;;23.64;46.41;102481.41;7282474;19;152409;-62
2022/08/08 08:45:04;;;;;;;;;;;;;;;23.65;46.56;102485.09;7289309;19;152824;-62
2022/08/08 08:47:49;;;;;;;;;;;;;;;23.64;46.58;102487.06;7287436;19;154044;-64
2022/08/08 08:50:19;;;;;;;;;;;;;;;23.64;46.75;102486.22;7287403;19;152220;-63
2022/08/08 08:53:02;;;;;;;;;;;;;;;23.64;46.92;102487.06;7289017;19;153249;-63
2022/08/08 08:55:55;;;;;;;;;;;;;;;23.63;47.06;102485.38;7287109;19;155710;-63
2022/08/08 08:58:34;;;;;;;;;;;;;;;23.64;46.66;102481.41;7287332;19;152158;-63
2022/08/08 09:01:04;;;;;;;;;;;;;;;23.65;46.63;102487.91;7294764;19;153515;-62
2022/08/08 09:03:41;;;;;;;;;;;;;;;23.66;46.83;102481.13;7284165;19;153201;-63
2022/08/08 09:06:20;;;;;;;;;;;;;;;23.66;46.83;102484.81;7289729;19;153464;-63
2022/08/08 09:09:03;;;;;;;;;;;;;;;23.68;46.96;102484.50;7285535;19;153030;-63
2022/08/08 09:11:32;;;;;;;;;;;;;;;23.69;46.91;102484.22;7285277;19;152074;-63
2022/08/08 09:14:23;;;;;;;;;;;;;;;23.70;47.00;102485.06;7289325;19;154751;-61
2022/08/08 09:16:52;;;;;;;;;;;;;;;23.69;47.01;102484.22;7286122;19;154314;-61
2022/08/08 09:19:19;;;;;;;;;;;;;;;23.72;47.25;102483.59;7285892;19;152292;-62
2022/08/08 09:22:06;;;;;;;;;;;;;;;23.72;46.80;102479.94;7288624;19;154781;-63
2022/08/08 09:24:37;;;;;;;;;;;;;;;23.74;47.04;102484.16;7293405;19;153553;-63
2022/08/08 09:27:11;;;;;;;;;;;;;;;23.74;46.97;102487.00;7288332;19;153092;-62
2022/08/08 09:29:57;;;;;;;;;;;;;;;23.74;46.67;102478.53;7286056;19;154093;-62
2022/08/08 09:32:56;;;;;;;;;;;;;;;23.75;46.89;102476.56;7285735;19;152854;-62
2022/08/08 09:35:45;;;;;;;;;;;;;;;23.75;46.67;102476.56;7282636;19;156589;-63
2022/08/08 09:38:38;;;;;;;;;;;;;;;23.79;47.04;102470.03;7287257;19;154894;-63
2022/08/08 09:41:39;;;;;;;;;;;;;;;23.81;46.56;102464.06;7288098;19;152412;-62
2022/08/08 09:44:38;;;;;;;;;;;;;;;23.80;46.75;102465.22;7287655;19;156260;-62
2022/08/08 09:47:07;;;;;;;;;;;;;;;23.80;46.63;102460.41;7286583;19;154715;-63
2022/08/08 09:49:57;;;;;;;;;;;;;;;23.83;46.97;102457.00;7290811;19;152405;-63
2022/08/08 09:52:31;;;;;;;;;;;;;;;23.88;46.80;102461.78;7284119;19;154042;-63
2022/08/08 09:55:18;;;;;;;;;;;;;;;23.88;46.72;102456.13;7283290;19;152301;-63
2022/08/08 09:58:13;;;;;;;;;;;;;;;23.92;46.67;102462.88;7288359;19;154269;-64
2022/08/08 10:00:54;;;;;;;;;;;;;;;23.94;46.26;102460.56;7286102;19;154326;-63
2022/08/08 10:03:26;;;;;;;;;;;;;;;23.97;46.70;102456.31;7285185;19;152217;-62
2022/08/08 10:05:57;;;;;;;;;;;;;;;24.01;46.25;102451.78;7285980;19;154081;-63
2022/08/08 10:08:24;;;;;;;;;;;;;;;24.05;46.41;102462.19;7285841;19;154621;-64
2022/08/08 10:10:59;;;;;;;;;;;;;;;24.05;46.39;102450.88;7294307;19;152431;-63
2022/08/08 10:13:29;;;;;;;;;;;;;;;24.09;46.32;102456.78;7286174;19;154638;-63
2022/08/08 10:16:01;;;;;;;;;;;;;;;24.11;46.52;102455.34;7286869;19;154424;-63
2022/08/08 10:18:35;;;;;;;;;;;;;;;24.12;46.46;102451.38;7287573;19;152643;-63
2022/08/08 10:21:09;;;;;;;;;;;;;;;24.13;46.50;102444.59;7282997;19;154371;-63
2022/08/08 10:23:51;;;;;;;;;;;;;;;24.16;46.41;102446.03;7286263;19;152651;-63
2022/08/08 10:26:27;;;;;;;;;;;;;;;24.19;45.98;102442.59;7287500;19;155325;-63
2022/08/08 10:29:04;;;;;;;;;;;;;;;24.22;46.23;102444.81;7285027;19;154169;-63
2022/08/08 10:34:21;;;;;;;;;;;;;;;24.27;46.05;102451.28;7291063;19;153796;-63
2022/08/08 10:36:51;;;;;;;;;;;;;;;24.28;46.03;102440.81;7286378;19;152783;-63
2022/08/08 10:39:17;;;;;;;;;;;;;;;24.31;46.02;102440.22;7286186;19;152179;-63
2022/08/08 10:41:56;;;;;;;;;;;;;;;24.32;45.94;102437.09;7284018;19;154060;-63
2022/08/08 10:44:41;;;;;;;;;;;;;;;24.34;46.23;102442.47;7286321;19;152499;-63
2022/08/08 10:47:13;;;;;;;;;;;;;;;24.36;46.02;102431.69;7284605;19;153303;-63
2022/08/08 10:49:41;;;;;;;;;;;;;;;24.39;46.18;102435.91;7282866;19;153788;-63
2022/08/08 10:52:28;;;;;;;;;;;;;;;24.40;46.18;102431.91;7283199;19;152185;-62
2022/08/08 10:55:00;;;;;;;;;;;;;;;24.41;46.63;102433.63;7285462;19;153763;-63
2022/08/08 10:57:46;;;;;;;;;;;;;;;24.45;46.07;102429.03;7292128;19;153498;-63
2022/08/08 11:00:20;;;;;;;;;;;;;;;24.46;46.39;102427.91;7285566;19;153026;-63
2022/08/08 11:02:48;;;;;;;;;;;;;;;24.45;46.38;102426.22;7281155;19;154134;-63
2022/08/08 11:05:15;;;;;;;;;;;;;;;24.46;46.36;102425.94;7282330;19;152845;-63
2022/08/08 11:07:47;;;;;;;;;;;;;;;24.50;46.08;102431.81;7284060;19;154517;-63
2022/08/08 11:10:34;;;;;;;;;;;;;;;24.51;46.19;102431.53;7258813;19;156972;-63
2022/08/08 11:13:14;;;;;;;;;;;;;;;24.50;45.98;102435.50;7276268;19;152933;-63
2022/08/08 11:15:55;;;;;;;;;;;;;;;24.47;46.29;102433.28;7282700;19;153619;-63
2022/08/08 11:18:29;;;;;;;;;;;;;;;24.49;46.22;102424.47;7282135;19;155209;-63
2022/08/08 11:20:56;;;;;;;;;;;;;;;24.49;46.08;102428.16;7288968;19;153008;-63
2022/08/08 11:23:25;;;;;;;;;;;;;;;24.53;46.38;102428.41;7280806;19;154186;-63
2022/08/08 11:25:57;;;;;;;;;;;;;;;24.54;45.99;102430.06;7279799;19;154775;-63
2022/08/08 11:28:25;;;;;;;;;;;;;;;24.55;46.29;102423.28;7282716;19;153798;-63
2022/08/08 11:30:58;;;;;;;;;;;;;;;24.56;46.50;102414.53;7279510;19;154054;-63
2022/08/08 11:33:26;;;;;;;;;;;;;;;24.56;46.55;102420.19;7280510;19;152490;-63
2022/08/08 11:36:15;;;;;;;;;;;;;;;24.58;46.56;102426.34;7282337;19;156091;-64
2022/08/08 11:38:44;;;;;;;;;;;;;;;24.61;46.61;102428.59;7279760;19;152384;-63
2022/08/08 11:41:22;;;;;;;;;;;;;;;24.62;46.58;102416.13;7285238;19;152496;-63
2022/08/08 11:43:51;;;;;;;;;;;;;;;24.64;46.24;102405.38;7290021;19;153493;-63
2022/08/08 11:46:20;;;;;;;;;;;;;;;24.63;45.91;102406.50;7283768;19;151782;-63
2022/08/08 11:48:50;;;;;;;;;;;;;;;24.63;46.48;102411.31;7281442;19;152736;-63
2022/08/08 11:51:18;;;;;;;;;;;;;;;24.63;46.17;102405.66;7281597;19;154022;-63
2022/08/08 11:54:06;;;;;;;;;;;;;;;24.69;46.44;102404.47;7283184;19;153621;-64
2022/08/08 11:56:52;;;;;;;;;;;;;;;24.70;46.41;102400.50;7282950;19;155313;-63
2022/08/08 11:59:30;;;;;;;;;;;;;;;24.70;46.57;102392.03;7282589;19;154991;-63
2022/08/08 12:02:16;;;;;;;;;;;;;;;24.71;46.54;102383.22;7263636;19;152358;-63
2022/08/08 12:05:05;;;;;;;;;;;;;;;24.72;46.36;102379.25;7279699;19;155068;-63
2022/08/08 12:07:47;;;;;;;;;;;;;;;24.69;46.37;102384.69;7287188;19;153429;-63
2022/08/08 12:10:17;;;;;;;;;;;;;;;24.68;46.73;102391.47;7280367;19;152855;-63
2022/08/08 12:12:48;;;;;;;;;;;;;;;24.66;46.95;102391.78;7275328;19;153101;-63
2022/08/08 12:15:27;;;;;;;;;;;;;;;24.67;47.17;102392.59;7281862;19;152304;-63
2022/08/08 12:17:54;;;;;;;;;;;;;;;24.69;46.94;102385.53;7278839;19;152713;-63
2022/08/08 12:20:21;;;;;;;;;;;;;;;24.71;46.50;102382.41;7275689;19;154075;-63
2022/08/08 12:22:49;;;;;;;;;;;;;;;24.72;46.64;102393.41;7281830;19;151965;-64
2022/08/08 12:25:22;;;;;;;;;;;;;;;24.71;46.64;102393.72;7280890;19;153805;-63
2022/08/08 12:28:12;;;;;;;;;;;;;;;24.71;46.65;102377.56;7286277;19;154623;-63
2022/08/08 12:30:42;;;;;;;;;;;;;;;24.69;46.80;102382.69;7279858;19;152945;-63
2022/08/08 12:33:16;;;;;;;;;;;;;;;24.74;46.74;102376.97;7278704;19;154073;-63
2022/08/08 12:35:46;;;;;;;;;;;;;;;24.73;46.48;102374.44;7276612;19;152183;-63
2022/08/08 12:38:18;;;;;;;;;;;;;;;24.74;46.36;102370.47;7281061;19;153103;-63
2022/08/08 12:40:55;;;;;;;;;;;;;;;24.75;46.32;102366.53;7279059;19;154186;-63
2022/08/08 12:43:41;;;;;;;;;;;;;;;24.74;46.50;102376.97;7279439;19;151983;-63
2022/08/08 12:46:25;;;;;;;;;;;;;;;24.73;46.84;102374.44;7279025;19;152308;-64
2022/08/08 12:49:00;;;;;;;;;;;;;;;24.71;46.76;102366.25;7277229;19;154296;-63
2022/08/08 12:51:49;;;;;;;;;;;;;;;24.71;46.76;102363.44;7285704;19;152563;-64
2022/08/08 12:54:36;;;;;;;;;;;;;;;24.73;46.73;102365.97;7278131;19;153484;-63
2022/08/08 12:57:14;;;;;;;;;;;;;;;24.75;46.46;102360.88;7280178;19;152309;-63
2022/08/08 12:59:50;;;;;;;;;;;;;;;24.78;46.19;102368.72;7279156;19;153754;-63
2022/08/08 13:02:39;;;;;;;;;;;;;;;24.78;47.02;102363.91;7273282;19;154399;-63
2022/08/08 13:05:23;;;;;;;;;;;;;;;24.77;46.77;102364.22;7271989;19;153465;-64
2022/08/08 13:08:13;;;;;;;;;;;;;;;24.75;46.81;102373.03;7280084;19;155435;-63
2022/08/08 13:10:48;;;;;;;;;;;;;;;24.76;46.65;102366.19;7277252;19;154998;-63
2022/08/08 13:13:28;;;;;;;;;;;;;;;24.76;46.48;102360.53;7280085;19;152098;-63
2022/08/08 13:16:16;;;;;;;;;;;;;;;24.79;46.31;102361.94;7287329;19;152742;-63
2022/08/08 13:18:44;;;;;;;;;;;;;;;24.83;46.35;102363.00;7278338;19;152634;-63
2022/08/08 13:21:26;;;;;;;;;;;;;;;24.84;46.54;102358.19;7281080;19;152983;-63
2022/08/08 13:24:13;;;;;;;;;;;;;;;24.83;46.88;102368.66;7278569;19;156677;-64
2022/08/08 13:27:03;;;;;;;;;;;;;;;24.83;46.67;102354.53;7280146;19;151962;-64
2022/08/08 13:29:46;;;;;;;;;;;;;;;24.86;46.72;102364.38;7279582;19;152663;-63